Time;durP1;ratioP1;P1;durP2;ratioP2;P2;SDS_P1;SDS_P2;PMS_P1;PMS_P2;Temp;Humidity;BMP_temperature;BMP_pressure;BME280_temperature;BME280_humidity;BME280_pressure;Samples;Min_cycle;Max_cycle;Signal;HPM_P1;HPM_P2
2023/12/23 00:01:49;;;;;;;3.70;1.30;;;;;;;19.67;39.12;100602.09;5079861;28;20039;-72
2023/12/23 00:04:15;;;;;;;3.30;1.65;;;;;;;19.66;39.08;100594.34;5083882;28;20051;-73
2023/12/23 00:06:40;;;;;;;2.65;1.33;;;;;;;19.65;39.16;100579.50;5081486;28;20044;-70
2023/12/23 00:09:06;;;;;;;2.50;1.15;;;;;;;19.64;39.04;100586.59;5082409;28;20024;-71
2023/12/23 00:11:32;;;;;;;5.03;1.25;;;;;;;19.58;39.07;100590.00;5064148;28;20067;-72
2023/12/23 00:13:57;;;;;;;2.88;1.35;;;;;;;19.56;39.11;100584.88;5082172;28;20035;-72
2023/12/23 00:16:24;;;;;;;1.98;1.02;;;;;;;19.60;39.20;100586.16;5085033;28;20047;-72
2023/12/23 00:18:49;;;;;;;2.92;0.93;;;;;;;19.61;39.28;100593.06;5087454;28;20121;-74
2023/12/23 00:21:15;;;;;;;2.80;1.08;;;;;;;19.62;38.92;100593.91;5084696;28;20040;-70
2023/12/23 00:23:40;;;;;;;4.00;1.73;;;;;;;19.59;39.17;100578.41;5083520;28;20044;-72
2023/12/23 00:26:06;;;;;;;2.42;1.15;;;;;;;19.58;39.21;100580.25;5088009;28;20054;-73
2023/12/23 00:28:32;;;;;;;2.55;1.17;;;;;;;19.56;38.87;100576.94;5082883;28;20132;-72
2023/12/23 00:30:57;;;;;;;3.88;1.35;;;;;;;19.53;39.37;100573.81;5086197;28;20050;-72
2023/12/23 00:33:24;;;;;;;3.53;1.52;;;;;;;19.54;39.29;100581.59;5085989;28;20035;-70
2023/12/23 00:35:50;;;;;;;2.85;1.10;;;;;;;19.55;39.20;100588.50;5087514;28;20047;-72
2023/12/23 00:38:15;;;;;;;4.40;1.17;;;;;;;19.51;39.29;100576.66;5083101;28;20036;-71
2023/12/23 00:40:41;;;;;;;3.78;1.15;;;;;;;19.55;39.25;100588.50;5085767;28;20435;-72
2023/12/23 00:43:06;;;;;;;3.13;1.40;;;;;;;19.54;39.29;100581.59;5084113;28;20085;-72
2023/12/23 00:45:32;;;;;;;3.42;1.25;;;;;;;19.54;39.20;100581.59;5065748;28;20039;-70
2023/12/23 00:47:58;;;;;;;2.85;1.35;;;;;;;19.53;39.60;100590.50;5084945;28;20078;-73
2023/12/23 00:50:23;;;;;;;3.05;1.27;;;;;;;19.51;39.30;100592.50;5086775;28;20032;-74
2023/12/23 00:52:49;;;;;;;2.85;1.20;;;;;;;19.51;39.38;100587.22;5096496;27;20051;-70
2023/12/23 00:55:14;;;;;;;3.53;1.48;;;;;;;19.42;39.36;100572.47;5080947;28;20048;-70
2023/12/23 00:57:40;;;;;;;2.25;1.30;;;;;;;19.49;39.36;100580.47;5084610;28;20043;-74
2023/12/23 01:00:06;;;;;;;2.58;1.02;;;;;;;19.49;39.34;100569.91;5082281;28;20384;-73
2023/12/23 01:02:32;;;;;;;3.40;1.63;;;;;;;19.47;39.37;100566.63;5088176;28;20042;-73
2023/12/23 01:04:57;;;;;;;1.35;1.10;;;;;;;19.46;39.41;100576.38;5075206;28;20044;-72
2023/12/23 01:07:23;;;;;;;3.25;1.15;;;;;;;19.39;39.44;100566.72;5084041;28;20055;-72
2023/12/23 01:09:48;;;;;;;4.32;1.60;;;;;;;19.47;39.44;100575.38;5068795;28;20028;-72
2023/12/23 01:12:14;;;;;;;3.15;1.42;;;;;;;19.48;39.40;100584.94;5080299;28;20055;-72
2023/12/23 01:14:39;;;;;;;3.55;1.58;;;;;;;19.42;39.48;100569.84;5083134;28;20045;-73
2023/12/23 01:17:05;;;;;;;1.98;1.35;;;;;;;19.48;39.36;100573.56;5085104;28;20044;-73
2023/12/23 01:19:30;;;;;;;3.63;1.27;;;;;;;19.45;39.49;100569.47;5081124;28;20075;-74
2023/12/23 01:21:57;;;;;;;2.15;1.25;;;;;;;19.46;39.29;100570.28;5083935;28;20055;-74
2023/12/23 01:24:23;;;;;;;1.92;1.00;;;;;;;19.46;39.44;100567.66;5083777;28;20036;-72
2023/12/23 01:26:48;;;;;;;2.63;1.50;;;;;;;19.37;39.46;100556.34;5086338;28;20046;-70
2023/12/23 01:29:14;;;;;;;2.72;1.20;;;;;;;19.45;39.59;100572.09;5082656;28;20063;-72
2023/12/23 01:31:39;;;;;;;2.60;1.17;;;;;;;19.45;39.49;100566.81;5082988;28;20055;-73
2023/12/23 01:34:05;;;;;;;3.22;0.95;;;;;;;19.42;39.48;100572.47;5083846;28;20055;-70
2023/12/23 01:36:30;;;;;;;2.40;1.00;;;;;;;19.43;39.46;100568.03;5084179;28;20217;-72
2023/12/23 01:38:57;;;;;;;2.08;1.13;;;;;;;19.43;39.58;100562.75;5082761;28;20044;-70
2023/12/23 01:41:23;;;;;;;4.30;1.50;;;;;;;19.43;39.51;100550.34;5086973;28;20055;-71
2023/12/23 01:43:48;;;;;;;2.67;1.40;;;;;;;19.42;39.38;100550.53;5072625;28;20047;-72
2023/12/23 01:46:14;;;;;;;2.92;1.45;;;;;;;19.35;39.60;100539.06;5078636;28;20093;-73
2023/12/23 01:48:44;;;;;;;2.80;1.05;;;;;;;19.40;39.53;100547.25;5080642;28;20115;-71
2023/12/23 01:51:11;;;;;;;3.47;1.38;;;;;;;19.40;39.54;100542.81;5081399;28;20076;-72
2023/12/23 01:53:36;;;;;;;2.47;0.82;;;;;;;19.38;39.57;100550.06;5082506;28;20138;-72
2023/12/23 01:56:02;;;;;;;3.33;1.20;;;;;;;19.40;39.55;100556.00;5084792;28;20042;-73
2023/12/23 01:58:28;;;;;;;2.97;1.30;;;;;;;19.37;39.61;100553.69;5082878;28;20043;-70
2023/12/23 02:00:54;;;;;;;2.75;1.60;;;;;;;19.39;39.48;100537.69;5083521;28;20119;-72
2023/12/23 02:03:20;;;;;;;3.35;1.42;;;;;;;19.40;39.61;100550.72;5084825;28;20463;-72
2023/12/23 02:05:46;;;;;;;2.30;1.10;;;;;;;19.35;39.68;100536.41;5086790;28;20130;-70
2023/12/23 02:08:12;;;;;;;2.92;1.40;;;;;;;19.40;39.47;100542.81;5082275;28;20119;-73
2023/12/23 02:10:39;;;;;;;4.75;1.70;;;;;;;19.36;39.69;100528.31;5080930;28;20067;-70
2023/12/23 02:13:21;;;;;;;2.17;1.33;;;;;;;19.48;39.39;100542.69;5083461;28;20490;-70
2023/12/23 02:15:47;;;;;;;3.38;1.17;;;;;;;19.53;39.38;100540.31;5084028;28;20432;-73
2023/12/23 02:18:13;;;;;;;2.10;1.08;;;;;;;19.61;39.29;100534.16;5099245;28;20048;-74
2023/12/23 02:20:40;;;;;;;3.22;1.20;;;;;;;19.61;39.28;100540.25;5081408;28;20142;-73
2023/12/23 02:23:06;;;;;;;2.88;1.30;;;;;;;19.67;39.21;100545.78;5083964;28;20048;-73
2023/12/23 02:25:32;;;;;;;1.13;0.95;;;;;;;19.67;39.26;100549.25;5084257;28;20105;-71
2023/12/23 02:28:06;;;;;;;2.45;1.02;;;;;;;19.59;39.22;100536.16;5080898;28;20054;-72
2023/12/23 02:30:33;;;;;;;4.40;1.20;;;;;;;19.67;39.24;100540.50;5097378;27;20362;-72
2023/12/23 02:32:58;;;;;;;3.20;1.10;;;;;;;19.54;39.30;100523.47;5083761;28;20032;-72
2023/12/23 02:35:27;;;;;;;3.97;1.30;;;;;;;19.67;39.38;100543.16;5079122;28;20702;-72
2023/12/23 02:37:52;;;;;;;1.90;1.02;;;;;;;19.60;39.27;100533.34;5081304;28;20097;-71
2023/12/23 02:40:18;;;;;;;3.10;1.30;;;;;;;19.64;39.55;100536.41;5083245;28;20139;-72
2023/12/23 02:42:44;;;;;;;1.85;1.05;;;;;;;19.64;39.40;100533.78;5081253;28;20116;-72
2023/12/23 02:45:09;;;;;;;3.03;1.27;;;;;;;19.55;39.36;100529.59;5084122;28;20050;-72
2023/12/23 02:47:35;;;;;;;2.17;1.05;;;;;;;19.57;39.37;100533.72;5081628;28;20040;-72
2023/12/23 02:50:01;;;;;;;3.30;1.35;;;;;;;19.62;39.42;100546.34;5083510;28;20032;-72
2023/12/23 02:52:27;;;;;;;2.63;1.25;;;;;;;19.62;39.47;100541.06;5081409;28;20665;-72
2023/12/23 02:54:52;;;;;;;3.30;1.20;;;;;;;19.61;39.50;100542.06;5081267;28;20044;-72
2023/12/23 02:57:18;;;;;;;3.30;1.25;;;;;;;19.61;39.51;100547.34;5083071;28;20048;-73
2023/12/23 02:59:43;;;;;;;2.00;1.15;;;;;;;19.58;39.57;100534.53;5066228;28;20040;-72
2023/12/23 03:02:09;;;;;;;2.33;1.02;;;;;;;19.40;39.52;100502.38;5071511;28;20043;-72
2023/12/23 03:04:34;;;;;;;4.10;1.30;;;;;;;19.60;39.57;100521.94;5082682;28;20032;-72
2023/12/23 03:07:00;;;;;;;3.13;1.17;;;;;;;19.59;39.43;100526.41;5065924;28;20089;-71
2023/12/23 03:09:26;;;;;;;3.47;1.30;;;;;;;19.50;39.54;100513.44;5081987;28;20044;-73
2023/12/23 03:11:52;;;;;;;3.08;1.67;;;;;;;19.57;39.50;100523.13;5080032;28;20027;-72
2023/12/23 03:14:18;;;;;;;2.30;1.05;;;;;;;19.56;39.57;100524.13;5082625;28;20040;-72
2023/12/23 03:16:44;;;;;;;3.28;1.60;;;;;;;19.54;39.52;100515.56;5084815;28;20460;-71
2023/12/23 03:19:09;;;;;;;1.65;1.10;;;;;;;19.49;39.55;100507.34;5078593;28;20036;-72
2023/12/23 03:21:42;;;;;;;1.58;0.90;;;;;;;19.54;39.58;100509.47;5079648;28;20750;-73
2023/12/23 03:24:07;;;;;;;2.65;1.20;;;;;;;19.53;39.39;100497.22;5082980;28;20043;-72
2023/12/23 03:26:33;;;;;;;3.10;1.30;;;;;;;19.53;39.55;100500.69;5081296;28;20040;-71
2023/12/23 03:28:58;;;;;;;1.88;1.20;;;;;;;19.53;39.54;100498.03;5061861;28;20344;-71
2023/12/23 03:31:24;;;;;;;1.80;0.90;;;;;;;19.60;39.74;100492.91;5083622;28;20505;-72
2023/12/23 03:33:51;;;;;;;5.07;1.08;;;;;;;19.65;39.80;100479.94;5030683;28;20040;-79
2023/12/23 03:36:17;;;;;;;1.23;0.95;;;;;;;19.80;39.80;100477.25;5056337;28;20024;-70
2023/12/23 03:38:43;;;;;;;4.40;1.10;;;;;;;19.81;39.93;100479.72;5083397;28;20056;-69
2023/12/23 03:41:10;;;;;;;2.40;1.15;;;;;;;19.82;40.08;100459.38;5079759;28;20044;-72
2023/12/23 03:43:36;;;;;;;2.60;0.70;;;;;;;19.93;39.86;100466.81;5083503;28;20550;-67
2023/12/23 03:46:01;;;;;;;1.70;0.60;;;;;;;20.04;39.82;100468.94;5086954;28;20040;-68
2023/12/23 03:48:27;;;;;;;2.33;1.02;;;;;;;20.09;39.76;100449.88;5078742;28;20062;-68
2023/12/23 03:50:53;;;;;;;2.35;1.05;;;;;;;20.09;39.72;100455.97;5039849;28;20317;-65
2023/12/23 03:53:18;;;;;;;3.03;1.35;;;;;;;20.15;39.73;100463.16;5069540;28;20048;-70
2023/12/23 03:55:44;;;;;;;3.70;1.13;;;;;;;20.16;39.63;100450.75;5083602;28;20086;-72
2023/12/23 03:58:09;;;;;;;2.80;1.33;;;;;;;20.15;39.91;100433.25;5020970;28;20036;-69
2023/12/23 04:00:35;;;;;;;2.05;1.10;;;;;;;20.25;39.71;100438.19;5083734;28;20043;-69
2023/12/23 04:03:01;;;;;;;1.95;0.80;;;;;;;20.28;39.76;100435.16;5040731;28;20047;-70
2023/12/23 04:05:26;;;;;;;2.70;1.23;;;;;;;20.36;39.54;100427.09;5084806;28;20048;-70
2023/12/23 04:07:52;;;;;;;2.42;1.00;;;;;;;20.31;39.69;100409.19;5040301;28;20089;-75
2023/12/23 04:10:17;;;;;;;2.97;1.08;;;;;;;20.42;39.53;100408.66;5082562;28;20044;-76
2023/12/23 04:12:43;;;;;;;2.00;0.70;;;;;;;20.42;39.49;100400.72;5035787;28;20068;-74
2023/12/23 04:15:09;;;;;;;2.20;0.68;;;;;;;20.31;39.48;100376.63;5085807;28;20028;-70
2023/12/23 04:17:36;;;;;;;2.10;0.85;;;;;;;20.47;39.60;100386.94;5069061;28;20036;-71
2023/12/23 04:20:02;;;;;;;2.58;0.88;;;;;;;20.77;38.90;100380.38;5085482;28;20036;-69
2023/12/23 04:22:27;;;;;;;3.00;1.08;;;;;;;20.92;38.76;100377.59;5039525;28;20055;-71
2023/12/23 04:24:53;;;;;;;1.20;0.90;;;;;;;21.21;38.32;100373.03;5086508;28;20590;-66
2023/12/23 04:27:19;;;;;;;2.13;1.00;;;;;;;21.36;38.11;100376.31;5037468;28;20040;-74
2023/12/23 04:29:44;;;;;;;2.50;1.15;;;;;;;21.25;38.60;100380.38;5080095;28;20031;-66
2023/12/23 04:32:10;;;;;;;1.27;1.00;;;;;;;21.12;38.96;100367.88;5053613;28;20364;-65
2023/12/23 04:34:39;;;;;;;2.80;1.10;;;;;;;21.10;39.07;100363.81;5074046;28;20055;-75
2023/12/23 04:37:04;;;;;;;0.82;0.52;;;;;;;21.02;39.13;100354.22;5063809;28;20047;-66
2023/12/23 04:39:30;;;;;;;2.90;1.60;;;;;;;21.13;38.86;100348.34;5062650;28;20372;-70
2023/12/23 04:41:57;;;;;;;2.10;0.90;;;;;;;21.36;38.63;100339.25;5058086;28;20124;-75
2023/12/23 04:44:24;;;;;;;1.95;1.00;;;;;;;21.36;38.65;100337.44;5084994;28;20058;-69
2023/12/23 04:46:50;;;;;;;1.83;0.88;;;;;;;21.46;38.28;100322.97;5040892;28;20032;-69
2023/12/23 04:49:16;;;;;;;1.65;0.88;;;;;;;21.47;38.26;100312.19;5089179;28;20040;-71
2023/12/23 04:51:44;;;;;;;3.05;1.17;;;;;;;21.54;38.14;100306.88;5040336;28;20047;-75
2023/12/23 04:54:13;;;;;;;1.63;0.80;;;;;;;21.60;38.29;100296.28;5084986;28;20115;-71
2023/12/23 04:56:40;;;;;;;1.47;0.80;;;;;;;21.60;38.07;100288.34;5049157;28;20047;-72
2023/12/23 04:59:06;;;;;;;1.55;0.98;;;;;;;21.55;38.35;100282.84;5100774;27;20624;-70
2023/12/23 05:01:32;;;;;;;1.38;0.73;;;;;;;21.30;38.61;100282.63;5038906;28;20107;-74
2023/12/23 05:03:57;;;;;;;2.78;1.38;;;;;;;21.07;39.00;100274.22;5085688;28;20729;-75
2023/12/23 05:06:23;;;;;;;1.50;0.88;;;;;;;21.04;39.25;100277.25;5020177;28;21677;-75
2023/12/23 05:08:48;;;;;;;1.92;1.02;;;;;;;20.92;39.19;100266.44;5066264;28;20114;-75
2023/12/23 05:11:14;;;;;;;0.93;0.40;;;;;;;20.77;39.39;100252.53;5064663;28;20036;-76
2023/12/23 05:13:40;;;;;;;1.58;0.85;;;;;;;20.90;39.37;100270.31;5034467;28;20048;-75
2023/12/23 05:16:06;;;;;;;1.65;0.88;;;;;;;20.81;39.41;100267.81;5076908;28;20092;-75
2023/12/23 05:18:31;;;;;;;0.98;0.60;;;;;;;20.81;39.69;100277.59;5031041;28;20040;-74
2023/12/23 05:20:57;;;;;;;1.50;0.65;;;;;;;20.75;39.58;100265.16;5082674;28;20524;-75
2023/12/23 05:23:22;;;;;;;0.98;0.40;;;;;;;20.76;39.56;100250.91;5033460;28;20032;-75
2023/12/23 05:25:48;;;;;;;2.05;0.90;;;;;;;20.67;39.62;100271.47;5084062;28;20498;-75
2023/12/23 05:28:13;;;;;;;2.25;0.75;;;;;;;20.63;39.48;100209.34;5035187;28;20165;-76
2023/12/23 05:30:39;;;;;;;1.70;0.57;;;;;;;20.68;39.46;100272.28;5083650;28;20047;-74
2023/12/23 05:33:05;;;;;;;1.35;0.50;;;;;;;20.65;39.43;100252.34;5039209;28;20103;-74
2023/12/23 05:35:31;;;;;;;0.98;0.80;;;;;;;20.56;39.60;100208.53;5082690;28;20048;-74
2023/12/23 05:37:56;;;;;;;1.85;0.80;;;;;;;20.64;39.59;100257.78;5038999;28;20066;-75
2023/12/23 05:40:21;;;;;;;2.20;0.60;;;;;;;20.83;39.34;100212.06;5088261;28;20063;-76
2023/12/23 05:42:47;;;;;;;2.38;0.90;;;;;;;21.10;38.87;100221.66;5036931;28;20051;-75
2023/12/23 05:45:14;;;;;;;1.05;0.68;;;;;;;21.18;38.63;100182.75;5065734;28;20773;-74
2023/12/23 05:47:39;;;;;;;1.20;0.52;;;;;;;21.19;38.48;100195.00;5082083;28;20054;-76
2023/12/23 05:50:06;;;;;;;1.90;0.70;;;;;;;21.20;38.36;100218.63;5037622;28;20031;-74
2023/12/23 05:52:31;;;;;;;1.30;0.77;;;;;;;21.08;38.72;100189.28;5073458;28;20039;-75
2023/12/23 05:54:57;;;;;;;3.80;0.85;;;;;;;21.06;38.73;100195.81;5038518;28;20124;-76
2023/12/23 05:57:22;;;;;;;1.17;0.70;;;;;;;20.98;39.00;100199.44;5083996;28;20036;-75
2023/12/23 05:59:48;;;;;;;1.00;0.70;;;;;;;20.95;38.81;100201.69;5035875;28;20040;-73
2023/12/23 06:02:13;;;;;;;1.08;0.80;;;;;;;20.89;38.98;100195.38;5074769;28;20733;-75
2023/12/23 06:04:39;;;;;;;1.92;0.65;;;;;;;20.85;39.04;100194.16;5030594;28;20456;-65
2023/12/23 06:07:04;;;;;;;1.15;0.60;;;;;;;20.77;39.11;100173.97;5080297;28;20047;-64
2023/12/23 06:09:30;;;;;;;1.05;0.70;;;;;;;20.77;39.13;100203.09;5037867;28;20122;-65
2023/12/23 06:11:55;;;;;;;2.70;0.80;;;;;;;20.69;39.30;100213.06;5086075;28;20055;-65
2023/12/23 06:14:21;;;;;;;1.23;0.80;;;;;;;20.68;39.24;100196.38;5033896;28;20032;-65
2023/12/23 06:16:46;;;;;;;0.57;0.45;;;;;;;20.65;39.51;100183.53;5079447;28;20070;-65
2023/12/23 06:19:12;;;;;;;1.75;0.65;;;;;;;20.65;39.28;100180.91;5041025;28;20040;-64
2023/12/23 06:21:39;;;;;;;1.08;0.65;;;;;;;20.66;39.47;100192.31;5079384;28;20058;-65
2023/12/23 06:24:05;;;;;;;1.10;0.60;;;;;;;20.61;39.27;100173.53;5034974;28;20051;-65
2023/12/23 06:26:30;;;;;;;1.13;0.68;;;;;;;20.64;39.44;100179.25;5080898;28;20036;-65
2023/12/23 06:28:56;;;;;;;1.55;0.70;;;;;;;20.59;39.36;100163.16;5035109;28;20040;-64
2023/12/23 06:31:22;;;;;;;0.90;0.55;;;;;;;20.63;39.64;100205.91;5073169;28;20036;-65
2023/12/23 06:33:47;;;;;;;2.20;0.93;;;;;;;20.62;39.65;100217.50;5026660;28;20036;-65
2023/12/23 06:36:13;;;;;;;1.58;0.75;;;;;;;20.63;39.45;100196.13;5080832;28;20819;-65
2023/12/23 06:38:38;;;;;;;1.55;0.75;;;;;;;20.62;39.51;100198.97;5033105;28;20802;-65
2023/12/23 06:41:04;;;;;;;0.47;0.40;;;;;;;20.55;39.50;100180.47;5073017;28;20048;-74
2023/12/23 06:43:29;;;;;;;1.30;0.57;;;;;;;20.61;39.24;100182.28;5043993;28;20044;-73
2023/12/23 06:45:56;;;;;;;1.08;0.75;;;;;;;20.58;39.36;100182.69;5072590;28;20461;-75
2023/12/23 06:48:22;;;;;;;1.13;0.50;;;;;;;20.57;39.31;100175.78;5062810;28;20107;-74
2023/12/23 06:50:48;;;;;;;0.43;0.30;;;;;;;20.55;39.49;100177.81;5058945;28;20659;-75
2023/12/23 06:53:13;;;;;;;1.50;0.70;;;;;;;20.56;39.56;100189.22;5069470;28;20778;-77
2023/12/23 06:55:39;;;;;;;0.75;0.70;;;;;;;20.47;39.42;100180.66;5083360;28;20039;-75
2023/12/23 06:58:04;;;;;;;1.15;0.57;;;;;;;20.54;39.37;100183.31;5081848;28;20040;-75
2023/12/23 07:00:30;;;;;;;0.57;0.43;;;;;;;20.85;39.13;100178.28;5034844;28;20100;-75
2023/12/23 07:02:55;;;;;;;1.20;0.45;;;;;;;21.20;38.48;100194.81;5079113;28;20775;-75
2023/12/23 07:05:21;;;;;;;1.27;0.90;;;;;;;21.28;37.93;100183.22;5015128;28;20047;-75
2023/12/23 07:07:47;;;;;;;0.82;0.38;;;;;;;21.27;38.11;100179.75;5079117;28;20044;-74
2023/12/23 07:10:13;;;;;;;1.33;0.43;;;;;;;21.17;38.35;100176.66;5030185;28;20052;-74
2023/12/23 07:12:40;;;;;;;1.02;0.55;;;;;;;21.21;38.40;100171.78;5079819;28;20408;-73
2023/12/23 07:15:06;;;;;;;0.30;0.30;;;;;;;21.22;38.35;100189.31;5026432;28;20104;-72
2023/12/23 07:17:32;;;;;;;0.75;0.30;;;;;;;21.08;38.32;100194.59;5077308;28;20040;-73
2023/12/23 07:19:58;;;;;;;0.93;0.60;;;;;;;21.09;38.57;100212.09;5036257;28;20032;-73
2023/12/23 07:22:24;;;;;;;0.50;0.28;;;;;;;20.98;38.65;100199.44;5078428;28;21008;-72
2023/12/23 07:24:49;;;;;;;0.95;0.52;;;;;;;20.91;38.98;100189.88;5029892;28;20040;-73
2023/12/23 07:27:15;;;;;;;1.08;0.60;;;;;;;20.95;38.97;100215.75;5083184;28;20510;-73
2023/12/23 07:29:41;;;;;;;0.63;0.30;;;;;;;20.93;38.90;100215.13;5035466;28;20082;-73
2023/12/23 07:32:07;;;;;;;0.82;0.57;;;;;;;20.83;38.95;100214.72;5081945;28;20052;-73
2023/12/23 07:34:33;;;;;;;0.65;0.50;;;;;;;20.76;39.04;100212.03;5038091;28;20036;-73
2023/12/23 07:36:58;;;;;;;0.57;0.35;;;;;;;20.49;39.20;100168.84;5081262;28;20722;-73
2023/12/23 07:39:24;;;;;;;0.50;0.28;;;;;;;20.74;39.22;100215.91;5034402;28;20709;-73
2023/12/23 07:41:49;;;;;;;0.80;0.38;;;;;;;20.66;39.47;100205.53;5081551;28;20440;-73
2023/12/23 07:44:15;;;;;;;1.25;0.60;;;;;;;20.62;39.29;100207.72;5035139;28;20046;-73
2023/12/23 07:46:40;;;;;;;1.00;0.45;;;;;;;20.66;39.45;100211.63;5080479;28;20032;-73
2023/12/23 07:49:07;;;;;;;1.50;0.77;;;;;;;20.62;39.44;100215.66;5034791;28;20047;-73
2023/12/23 07:51:33;;;;;;;0.80;0.50;;;;;;;20.63;39.53;100219.94;5083776;28;20670;-73
2023/12/23 07:53:59;;;;;;;0.90;0.60;;;;;;;20.65;39.41;100225.06;5032329;28;20040;-73
2023/12/23 07:56:25;;;;;;;0.95;0.52;;;;;;;20.63;39.41;100240.28;5085480;28;20716;-73
2023/12/23 07:58:52;;;;;;;0.55;0.50;;;;;;;20.64;39.34;100239.28;5033030;28;20040;-73
2023/12/23 08:01:17;;;;;;;0.47;0.32;;;;;;;20.62;39.39;100225.44;5098312;28;20042;-73
2023/12/23 08:03:43;;;;;;;0.88;0.50;;;;;;;20.63;39.43;100262.28;5065067;28;20036;-73
2023/12/23 08:06:08;;;;;;;0.55;0.47;;;;;;;20.58;39.53;100283.22;5081180;28;20798;-73
2023/12/23 08:08:34;;;;;;;0.50;0.38;;;;;;;20.52;39.38;100234.56;5033348;28;20028;-73
2023/12/23 08:10:59;;;;;;;1.25;0.50;;;;;;;20.50;39.14;100241.91;5079912;28;20036;-73
2023/12/23 08:13:27;;;;;;;0.95;0.40;;;;;;;20.50;39.53;100233.16;5018602;28;20032;-73
2023/12/23 08:15:52;;;;;;;0.55;0.32;;;;;;;20.60;39.34;100253.91;5082469;28;20451;-73
2023/12/23 08:18:18;;;;;;;0.90;0.60;;;;;;;20.58;39.47;100254.13;5032790;28;20059;-73
2023/12/23 08:20:44;;;;;;;0.47;0.30;;;;;;;20.58;39.58;100255.94;5083734;28;20044;-73
2023/12/23 08:23:09;;;;;;;0.40;0.40;;;;;;;20.58;39.40;100256.75;5032397;28;20040;-73
2023/12/23 08:25:35;;;;;;;0.57;0.30;;;;;;;20.56;39.47;100264.09;5083547;28;20062;-73
2023/12/23 08:28:00;;;;;;;0.38;0.30;;;;;;;20.45;39.40;100252.22;5032803;28;21213;-73
2023/12/23 08:30:26;;;;;;;0.43;0.20;;;;;;;20.42;39.42;100247.34;5076593;28;20419;-74
2023/12/23 08:32:51;;;;;;;1.80;0.65;;;;;;;20.52;39.56;100265.50;5035679;28;20043;-73
2023/12/23 08:35:17;;;;;;;0.82;0.47;;;;;;;20.37;39.40;100254.22;5083807;28;20032;-75
2023/12/23 08:37:42;;;;;;;0.55;0.40;;;;;;;20.52;39.46;100270.78;5037982;28;20043;-74
2023/12/23 08:40:09;;;;;;;1.00;0.50;;;;;;;20.52;39.46;100279.53;5068030;28;20047;-66
2023/12/23 08:42:35;;;;;;;0.10;0.10;;;;;;;20.50;39.51;100265.69;5069927;28;20471;-66
2023/12/23 08:45:00;;;;;;;2.10;0.40;;;;;;;20.48;39.65;100273.03;5049300;28;20055;-66
2023/12/23 08:47:26;;;;;;;0.77;0.60;;;;;;;20.48;39.61;100273.03;5085470;28;20159;-66
2023/12/23 08:49:51;;;;;;;0.65;0.40;;;;;;;20.49;39.51;100279.13;5029554;28;20036;-67
2023/12/23 08:52:17;;;;;;;0.70;0.40;;;;;;;20.49;39.53;100293.16;5085390;28;20712;-65
2023/12/23 08:54:43;;;;;;;0.40;0.40;;;;;;;20.48;39.57;100296.00;5032894;28;20675;-65
2023/12/23 08:57:08;;;;;;;0.28;0.28;;;;;;;20.48;39.72;100303.94;5085228;28;20055;-65
2023/12/23 08:59:34;;;;;;;2.42;0.35;;;;;;;20.44;39.44;100292.09;5034787;28;20046;-65
2023/12/23 09:02:02;;;;;;;0.63;0.35;;;;;;;20.47;39.59;100320.81;5085924;28;20040;-65
2023/12/23 09:04:28;;;;;;;1.30;0.32;;;;;;;20.46;39.58;100322.63;5035142;28;20032;-66
2023/12/23 09:06:55;;;;;;;0.70;0.50;;;;;;;20.41;39.75;100305.72;5068770;28;20542;-66
2023/12/23 09:09:20;;;;;;;0.30;0.30;;;;;;;20.47;39.55;100310.25;5083616;28;20039;-66
2023/12/23 09:11:46;;;;;;;0.90;0.63;;;;;;;20.45;39.54;100307.78;5039893;28;20479;-66
2023/12/23 09:14:12;;;;;;;0.75;0.45;;;;;;;20.46;39.53;100314.69;5082035;28;20048;-66
2023/12/23 09:16:37;;;;;;;0.38;0.35;;;;;;;20.45;39.56;100313.06;5034830;28;20388;-65
2023/12/23 09:19:03;;;;;;;0.40;0.40;;;;;;;20.34;39.57;100302.22;5085433;28;20420;-64
2023/12/23 09:21:29;;;;;;;0.73;0.40;;;;;;;20.46;39.60;100324.44;5037144;28;21065;-66
2023/12/23 09:23:54;;;;;;;0.50;0.30;;;;;;;20.45;39.56;100325.47;5077637;28;20067;-68
2023/12/23 09:26:20;;;;;;;0.50;0.50;;;;;;;20.46;39.77;100324.44;5041217;28;20040;-66
2023/12/23 09:28:45;;;;;;;0.43;0.40;;;;;;;20.42;39.54;100329.31;5084070;28;20581;-65
2023/12/23 09:31:12;;;;;;;1.80;0.65;;;;;;;20.43;39.61;100330.13;5037773;28;21758;-66
2023/12/23 09:33:39;;;;;;;1.55;0.43;;;;;;;20.13;39.87;100279.31;5084729;28;20094;-66
2023/12/23 09:36:05;;;;;;;0.20;0.20;;;;;;;20.43;39.74;100324.84;5043652;28;20059;-65
2023/12/23 09:38:30;;;;;;;0.50;0.40;;;;;;;20.40;39.73;100317.28;5072900;28;20143;-65
2023/12/23 09:40:57;;;;;;;1.27;0.38;;;;;;;20.50;39.50;100320.44;5067882;28;20047;-66
2023/12/23 09:43:23;;;;;;;0.60;0.30;;;;;;;20.79;39.03;100322.78;5058486;28;20063;-64
2023/12/23 09:45:51;;;;;;;0.98;0.50;;;;;;;20.92;38.60;100307.97;5083975;28;20100;-65
2023/12/23 09:48:17;;;;;;;1.17;0.50;;;;;;;20.99;38.54;100322.03;5055156;27;20040;-66
2023/12/23 09:50:43;;;;;;;0.75;0.43;;;;;;;20.90;38.74;100316.09;5083065;28;20752;-65
2023/12/23 09:53:12;;;;;;;1.90;0.40;;;;;;;20.93;38.82;100331.59;5017594;28;20067;-65
2023/12/23 09:55:39;;;;;;;0.77;0.40;;;;;;;20.90;38.82;100333.81;5082699;28;20038;-65
2023/12/23 09:58:05;;;;;;;0.73;0.57;;;;;;;20.87;39.05;100332.38;5033870;28;20129;-65
2023/12/23 10:00:32;;;;;;;1.00;0.50;;;;;;;20.83;39.26;100331.16;5080127;28;20028;-65
2023/12/23 10:02:58;;;;;;;0.43;0.38;;;;;;;20.75;39.25;100326.84;5031471;28;20414;-66
2023/12/23 10:05:27;;;;;;;0.40;0.38;;;;;;;20.68;39.60;100330.47;5081806;28;20109;-67
2023/12/23 10:07:59;;;;;;;0.40;0.40;;;;;;;20.67;39.57;100329.66;5029018;28;20050;-66
2023/12/23 10:10:25;;;;;;;0.32;0.28;;;;;;;20.56;39.55;100314.34;5097430;27;20043;-65
2023/12/23 10:12:52;;;;;;;0.60;0.60;;;;;;;20.68;39.44;100352.47;5015402;28;20048;-65
2023/12/23 10:15:17;;;;;;;0.50;0.47;;;;;;;20.61;39.68;100333.06;5077421;28;20060;-65
2023/12/23 10:17:43;;;;;;;0.45;0.40;;;;;;;20.63;39.67;100346.09;5073932;28;20055;-65
2023/12/23 10:20:13;;;;;;;0.77;0.50;;;;;;;20.58;39.68;100346.69;5043493;28;20184;-65
2023/12/23 10:22:42;;;;;;;0.90;0.63;;;;;;;20.57;39.49;100338.97;5080938;28;20176;-65
2023/12/23 10:25:08;;;;;;;0.73;0.40;;;;;;;20.59;39.65;100353.63;5044426;28;20048;-65
2023/12/23 10:27:34;;;;;;;0.65;0.55;;;;;;;20.57;39.67;100345.06;5082789;28;20067;-65
2023/12/23 10:30:03;;;;;;;1.92;0.47;;;;;;;20.26;39.64;100307.63;5038718;28;20042;-65
2023/12/23 10:32:35;;;;;;;0.80;0.70;;;;;;;20.56;39.82;100354.03;5081800;28;20038;-63
2023/12/23 10:35:02;;;;;;;0.68;0.60;;;;;;;20.59;39.62;100350.97;5038038;28;20118;-64
2023/12/23 10:37:29;;;;;;;1.13;0.57;;;;;;;20.61;39.72;100350.78;5087445;28;20044;-64
2023/12/23 10:40:09;;;;;;;1.70;0.52;;;;;;;20.84;39.29;100356.59;5029850;28;20061;-64
2023/12/23 10:42:37;;;;;;;0.95;0.60;;;;;;;21.07;38.87;100354.44;5081958;28;20074;-64
2023/12/23 10:45:04;;;;;;;0.57;0.55;;;;;;;21.19;38.53;100359.97;5034131;28;20040;-64
2023/12/23 10:47:33;;;;;;;1.83;0.80;;;;;;;21.34;38.69;100354.53;5076182;28;20047;-64
2023/12/23 10:49:59;;;;;;;2.40;0.80;;;;;;;21.32;38.65;100348.63;5028299;28;20078;-64
2023/12/23 10:52:26;;;;;;;0.65;0.60;;;;;;;21.30;38.64;100354.13;5076962;28;20073;-63
2023/12/23 10:54:52;;;;;;;2.17;0.88;;;;;;;21.25;38.90;100350.44;5025254;28;20043;-63
2023/12/23 10:57:20;;;;;;;0.85;0.70;;;;;;;21.15;38.96;100336.72;5078272;28;20105;-64
2023/12/23 10:59:46;;;;;;;2.38;0.70;;;;;;;21.30;38.69;100340.88;5022275;28;20036;-63
2023/12/23 11:02:15;;;;;;;1.48;1.02;;;;;;;21.30;38.54;100337.41;5071045;28;20040;-63
2023/12/23 11:04:45;;;;;;;0.75;0.60;;;;;;;21.26;38.70;100336.19;5029607;28;20068;-65
2023/12/23 11:07:13;;;;;;;0.52;0.38;;;;;;;21.29;38.50;100341.09;5084856;28;20116;-64
2023/12/23 11:09:43;;;;;;;0.88;0.65;;;;;;;21.24;38.88;100339.03;5027804;28;20140;-63
2023/12/23 11:12:09;;;;;;;0.32;0.30;;;;;;;20.85;38.75;100280.69;5082890;28;20479;-63
2023/12/23 11:14:36;;;;;;;1.05;0.63;;;;;;;21.19;38.70;100341.44;5027145;28;20077;-66
2023/12/23 11:17:02;;;;;;;1.27;0.70;;;;;;;21.17;38.89;100346.09;5066144;28;20035;-64
2023/12/23 11:19:27;;;;;;;3.30;1.50;;;;;;;21.22;38.92;100343.69;5084096;28;20051;-64